Time;durP1;ratioP1;P1;durP2;ratioP2;P2;SDS_P1;SDS_P2;PMS_P1;PMS_P2;Temp;Humidity;BMP_temperature;BMP_pressure;BME280_temperature;BME280_humidity;BME280_pressure;Samples;Min_cycle;Max_cycle;Signal;HPM_P1;HPM_P2
2023/05/04 00:00:38;;;;;;;8.43;5.03;;;;;;;3.79;100.00;93385.88;2543940;23;20001;-83
2023/05/04 00:01:39;;;;;;;6.80;5.38;;;;;;;3.72;100.00;93388.44;2544093;23;20016;-82
2023/05/04 00:02:40;;;;;;;5.40;4.82;;;;;;;3.85;100.00;93387.03;2556244;23;20012;-83
2023/05/04 00:03:41;;;;;;;7.53;5.72;;;;;;;3.69;100.00;93389.19;2555522;23;20019;-83
2023/05/04 00:04:45;;;;;;;9.07;5.80;;;;;;;3.63;100.00;93394.03;2556264;23;20028;-83
2023/05/04 00:05:46;;;;;;;6.65;5.43;;;;;;;3.75;100.00;93391.13;2556023;23;20354;-82
2023/05/04 00:06:48;;;;;;;7.10;5.35;;;;;;;3.75;100.00;93377.16;2555300;23;20063;-83
2023/05/04 00:07:49;;;;;;;7.80;5.80;;;;;;;3.72;100.00;93383.91;2555660;23;20075;-81
2023/05/04 00:08:50;;;;;;;8.40;5.80;;;;;;;3.64;100.00;93381.56;2543561;23;20460;-83
2023/05/04 00:09:51;;;;;;;6.82;5.40;;;;;;;3.57;100.00;93386.81;2543847;23;20006;-83
2023/05/04 00:10:54;;;;;;;6.20;5.07;;;;;;;3.62;100.00;93383.81;2556004;23;20005;-84
2023/05/04 00:11:55;;;;;;;9.02;5.90;;;;;;;3.80;100.00;93379.44;2556481;23;20015;-83
2023/05/04 00:12:56;;;;;;;8.57;5.88;;;;;;;3.65;100.00;93377.81;2568135;23;20036;-83
2023/05/04 00:13:57;;;;;;;6.75;5.38;;;;;;;3.62;100.00;93381.19;2554956;23;20008;-83
2023/05/04 00:14:58;;;;;;;9.10;5.50;;;;;;;3.65;100.00;93375.94;2543699;23;20009;-83
2023/05/04 00:16:09;;;;;;;8.27;5.40;;;;;;;3.50;100.00;93382.97;2555900;23;20044;-82
2023/05/04 00:17:12;;;;;;;7.93;5.45;;;;;;;3.64;100.00;93376.28;2557660;23;20012;-83
2023/05/04 00:18:13;;;;;;;7.38;5.40;;;;;;;3.57;100.00;93384.16;2556853;23;20001;-83
2023/05/04 00:19:14;;;;;;;6.60;5.43;;;;;;;3.62;100.00;93378.53;2555564;23;20546;-83
2023/05/04 00:20:18;;;;;;;7.15;5.68;;;;;;;3.59;100.00;93385.31;2543630;23;20041;-83
2023/05/04 00:21:22;;;;;;;6.88;5.85;;;;;;;3.56;100.00;93380.78;2556638;23;20009;-82
2023/05/04 00:22:23;;;;;;;8.32;5.30;;;;;;;3.57;100.00;93374.34;2556387;23;20005;-82
2023/05/04 00:23:28;;;;;;;9.43;5.88;;;;;;;3.51;100.00;93375.78;2543105;23;20466;-82
2023/05/04 00:24:47;;;;;;;7.25;5.57;;;;;;;3.52;100.00;93370.16;2559445;23;20000;-83
2023/05/04 00:25:48;;;;;;;7.57;6.30;;;;;;;3.50;100.00;93371.63;2547294;23;20008;-82
2023/05/04 00:26:51;;;;;;;8.65;5.90;;;;;;;3.48;100.00;93368.63;2543475;23;20001;-83
2023/05/04 00:27:52;;;;;;;8.30;5.13;;;;;;;3.45;100.00;93371.97;2543942;23;20084;-83
2023/05/04 00:28:55;;;;;;;11.65;6.28;;;;;;;3.49;100.00;93375.41;2542854;23;20077;-82
2023/05/04 00:29:57;;;;;;;6.93;5.47;;;;;;;3.41;100.00;93371.94;2544444;23;20009;-82
2023/05/04 00:30:59;;;;;;;9.45;5.82;;;;;;;3.48;100.00;93371.25;2543493;23;20077;-83
2023/05/04 00:32:00;;;;;;;7.80;6.10;;;;;;;3.34;100.00;93373.78;2543221;23;20280;-83
2023/05/04 00:33:01;;;;;;;9.18;5.50;;;;;;;3.46;100.00;93366.31;2542718;23;20488;-83
2023/05/04 00:34:04;;;;;;;6.88;6.05;;;;;;;3.42;100.00;93365.53;2543348;23;20491;-84
2023/05/04 00:35:11;;;;;;;8.35;6.05;;;;;;;3.42;100.00;93365.53;2543163;23;20006;-84
2023/05/04 00:36:15;;;;;;;7.72;5.68;;;;;;;3.46;100.00;93365.56;2569026;23;20271;-84
2023/05/04 00:37:16;;;;;;;9.10;5.43;;;;;;;3.34;100.00;93366.59;2556174;23;20028;-83
2023/05/04 00:38:18;;;;;;;10.20;6.07;;;;;;;3.38;100.00;93361.31;2543702;23;20365;-84
2023/05/04 00:39:19;;;;;;;7.78;6.22;;;;;;;3.36;100.00;93364.34;2555451;23;20028;-84
2023/05/04 00:40:21;;;;;;;10.02;6.32;;;;;;;3.34;100.00;93365.84;2544079;23;20006;-84
2023/05/04 00:41:22;;;;;;;11.95;5.75;;;;;;;3.39;100.00;93360.97;2555521;23;20012;-83
2023/05/04 00:42:26;;;;;;;13.98;6.25;;;;;;;3.36;100.00;93358.31;2567562;23;20000;-84
2023/05/04 00:43:27;;;;;;;10.43;6.53;;;;;;;3.48;100.00;93360.69;2556040;23;20040;-84
2023/05/04 00:44:28;;;;;;;7.65;6.07;;;;;;;3.34;100.00;93356.03;2555395;23;20009;-84
2023/05/04 00:45:32;;;;;;;7.65;5.50;;;;;;;3.40;100.00;93356.44;2555512;23;20507;-83
2023/05/04 00:46:33;;;;;;;8.10;5.97;;;;;;;3.43;100.00;93350.44;2569574;22;20415;-82
2023/05/04 00:47:36;;;;;;;9.77;6.22;;;;;;;3.37;100.00;93357.94;2567992;23;20305;-83
2023/05/04 00:48:44;;;;;;;8.10;6.05;;;;;;;3.36;100.00;93356.41;2556982;23;20012;-83
2023/05/04 00:49:47;;;;;;;8.68;5.97;;;;;;;3.34;100.00;93357.91;2555608;23;20001;-84
2023/05/04 00:50:51;;;;;;;14.75;6.53;;;;;;;3.28;100.00;93345.00;2543450;23;20009;-82
2023/05/04 00:52:00;;;;;;;6.95;6.05;;;;;;;3.30;100.00;93357.13;2555962;23;20468;-84
2023/05/04 00:53:07;;;;;;;8.70;5.82;;;;;;;3.24;100.00;93354.78;2570941;22;20004;-83
2023/05/04 00:54:08;;;;;;;9.68;6.50;;;;;;;3.28;100.00;93354.81;2567576;23;20328;-82
2023/05/04 00:55:10;;;;;;;10.02;6.13;;;;;;;3.25;100.00;93348.41;2567381;23;20015;-84
2023/05/04 00:56:12;;;;;;;10.63;6.15;;;;;;;3.25;100.00;93351.03;2555013;23;20451;-84
2023/05/04 00:57:17;;;;;;;8.60;6.30;;;;;;;3.21;100.00;93349.50;2543706;23;20093;-83
2023/05/04 00:58:18;;;;;;;11.48;6.40;;;;;;;3.16;100.00;93349.78;2556190;23;20013;-84
2023/05/04 00:59:20;;;;;;;9.38;6.15;;;;;;;3.16;100.00;93353.22;2555676;23;20001;-82
2023/05/04 01:00:23;;;;;;;8.50;6.47;;;;;;;3.11;100.00;93350.88;2555555;23;20308;-82
2023/05/04 01:01:25;;;;;;;9.73;5.97;;;;;;;3.05;100.00;93351.59;2556236;23;20013;-83
2023/05/04 01:02:30;;;;;;;9.70;6.00;;;;;;;3.11;100.00;93350.88;2554915;23;20420;-83
2023/05/04 01:03:31;;;;;;;10.25;5.93;;;;;;;3.11;100.00;93345.59;2555928;23;20024;-83
2023/05/04 01:04:33;;;;;;;7.32;5.53;;;;;;;3.18;100.00;93350.22;2567362;23;20059;-82
2023/05/04 01:05:42;;;;;;;8.60;5.88;;;;;;;3.13;100.00;93339.97;2555666;23;20017;-83
2023/05/04 01:07:32;;;;;;;12.35;6.28;;;;;;;3.03;100.00;93350.06;2546460;23;20304;-82
2023/05/04 01:08:41;;;;;;;11.48;6.47;;;;;;;3.08;100.00;93350.88;2565342;23;20016;-83
2023/05/04 01:10:03;;;;;;;8.25;6.13;;;;;;;3.02;100.00;93348.53;2558324;23;20001;-82
2023/05/04 01:11:10;;;;;;;6.95;5.97;;;;;;;3.02;100.00;93345.91;2571990;23;20030;-83
2023/05/04 01:12:17;;;;;;;8.65;6.20;;;;;;;2.96;100.00;93355.28;2556225;23;20012;-82
2023/05/04 01:13:21;;;;;;;9.25;5.65;;;;;;;2.96;100.00;93346.59;2555664;23;20013;-84
2023/05/04 01:14:24;;;;;;;12.93;6.82;;;;;;;2.97;100.00;93346.22;2555736;23;20001;-83
2023/05/04 01:15:26;;;;;;;9.50;6.40;;;;;;;2.99;100.00;93349.28;2568124;23;20012;-83
2023/05/04 01:16:27;;;;;;;11.73;6.25;;;;;;;2.99;100.00;93353.81;2543668;23;20059;-82
2023/05/04 01:17:29;;;;;;;11.00;6.40;;;;;;;2.97;100.00;93353.38;2555066;23;20013;-84
2023/05/04 01:18:30;;;;;;;8.77;5.82;;;;;;;2.93;100.00;93349.94;2555970;23;20482;-84
2023/05/04 01:19:34;;;;;;;9.35;6.05;;;;;;;2.84;100.00;93355.50;2566616;23;20210;-84
2023/05/04 01:20:36;;;;;;;6.45;5.70;;;;;;;2.90;100.00;93351.44;2544215;23;20009;-83
2023/05/04 01:21:39;;;;;;;8.95;6.30;;;;;;;2.84;100.00;93352.88;2555035;23;20463;-84
2023/05/04 01:22:41;;;;;;;7.22;6.22;;;;;;;2.92;100.00;93346.56;2568171;22;20432;-83
2023/05/04 01:23:44;;;;;;;10.23;6.68;;;;;;;2.95;100.00;93348.47;2580266;23;20099;-83
2023/05/04 01:24:46;;;;;;;6.82;6.13;;;;;;;2.82;100.00;93349.84;2555523;23;20087;-83
2023/05/04 01:26:13;;;;;;;9.15;6.40;;;;;;;2.82;100.00;93355.13;2567523;23;20015;-83
2023/05/04 01:27:30;;;;;;;8.73;6.30;;;;;;;2.82;100.00;93347.22;2553236;23;20045;-83
2023/05/04 01:28:43;;;;;;;14.70;7.20;;;;;;;3.03;100.00;93350.06;2575054;22;20459;-83
2023/05/04 01:30:07;;;;;;;9.57;6.45;;;;;;;2.87;100.00;93349.53;2567513;23;20415;-83
2023/05/04 01:31:13;;;;;;;9.48;6.97;;;;;;;2.85;100.00;93343.81;2559894;23;20012;-82
2023/05/04 01:32:16;;;;;;;12.02;6.40;;;;;;;2.88;100.00;93350.28;2544750;23;20400;-83
2023/05/04 01:33:30;;;;;;;12.52;6.93;;;;;;;2.98;100.00;93355.66;2543269;23;20017;-82
2023/05/04 01:34:31;;;;;;;11.25;6.50;;;;;;;2.97;100.00;93356.78;2557631;23;20013;-83
2023/05/04 01:35:33;;;;;;;11.00;6.35;;;;;;;3.25;100.00;93353.69;2543560;23;20383;-83
2023/05/04 01:36:35;;;;;;;7.53;6.40;;;;;;;3.10;100.00;93348.63;2543638;23;20013;-83
2023/05/04 01:37:36;;;;;;;11.13;7.00;;;;;;;3.11;100.00;93350.13;2555521;23;20004;-82
2023/05/04 01:38:37;;;;;;;10.25;6.63;;;;;;;3.00;100.00;93350.78;2568027;23;20434;-84
2023/05/04 01:39:39;;;;;;;14.38;7.35;;;;;;;2.95;100.00;93343.19;2566897;23;20004;-83
2023/05/04 01:40:42;;;;;;;11.90;7.05;;;;;;;2.90;100.00;93354.09;2566778;23;20012;-83
2023/05/04 01:41:45;;;;;;;10.50;7.05;;;;;;;2.81;100.00;93343.06;2569102;22;20637;-84
2023/05/04 01:42:47;;;;;;;16.30;7.35;;;;;;;2.86;100.00;93341.97;2579996;23;20000;-84
2023/05/04 01:43:48;;;;;;;9.73;7.28;;;;;;;2.75;100.00;93345.22;2555251;23;20020;-84
2023/05/04 01:44:49;;;;;;;10.98;7.30;;;;;;;2.72;100.00;93342.53;2554772;23;20005;-84
2023/05/04 01:45:50;;;;;;;13.50;7.97;;;;;;;2.67;100.00;93348.91;2567443;23;20019;-83
2023/05/04 01:46:52;;;;;;;11.77;7.40;;;;;;;2.70;100.00;93344.78;2568335;23;20367;-82
2023/05/04 01:47:56;;;;;;;11.02;7.45;;;;;;;2.70;100.00;93342.91;2568180;23;20324;-84
2023/05/04 01:48:57;;;;;;;12.65;7.35;;;;;;;2.71;100.00;93343.66;2568485;23;20037;-84
2023/05/04 01:50:01;;;;;;;11.60;7.47;;;;;;;2.71;100.00;93344.44;2567461;23;20000;-83
2023/05/04 01:51:04;;;;;;;12.77;7.05;;;;;;;2.62;100.00;93340.56;2556386;23;20032;-83
2023/05/04 01:52:05;;;;;;;17.10;7.68;;;;;;;2.71;100.00;93343.66;2568629;23;20451;-84
2023/05/04 01:53:06;;;;;;;13.45;7.20;;;;;;;2.70;100.00;93344.78;2568008;23;20005;-82
2023/05/04 01:54:14;;;;;;;12.30;7.38;;;;;;;2.69;100.00;93341.41;2555928;23;20012;-83
2023/05/04 01:55:15;;;;;;;11.52;7.35;;;;;;;2.66;100.00;93342.13;2546965;23;20333;-83
2023/05/04 01:56:16;;;;;;;12.90;7.32;;;;;;;2.61;100.00;93339.78;2568392;23;20084;-83
2023/05/04 01:57:19;;;;;;;12.82;8.02;;;;;;;2.66;100.00;93342.13;2580240;23;20419;-84
2023/05/04 01:58:24;;;;;;;12.13;7.68;;;;;;;2.72;100.00;93337.25;2555839;23;20016;-83
2023/05/04 01:59:25;;;;;;;13.43;7.55;;;;;;;2.80;100.00;93340.75;2556125;23;20004;-84
2023/05/04 02:00:27;;;;;;;13.05;7.45;;;;;;;2.67;100.00;93348.91;2543671;23;20002;-83
2023/05/04 02:01:28;;;;;;;9.43;7.15;;;;;;;2.66;100.00;93336.84;2543736;23;20001;-84
2023/05/04 02:02:29;;;;;;;12.40;7.10;;;;;;;2.62;100.00;93345.84;2543578;23;20032;-82
2023/05/04 02:03:36;;;;;;;7.75;6.88;;;;;;;2.57;100.00;93340.88;2555351;23;20464;-83
2023/05/04 02:04:41;;;;;;;9.30;7.10;;;;;;;2.60;100.00;93340.91;2556238;23;20001;-84
2023/05/04 02:05:45;;;;;;;9.60;7.05;;;;;;;2.59;100.00;93342.03;2568811;23;19996;-83
2023/05/04 02:06:52;;;;;;;9.93;7.50;;;;;;;2.63;100.00;93337.53;2556074;23;20507;-84
2023/05/04 02:07:53;;;;;;;8.95;7.18;;;;;;;2.56;100.00;93342.00;2569920;22;20027;-83
2023/05/04 02:08:57;;;;;;;12.52;7.88;;;;;;;2.60;100.00;93340.16;2567736;23;20458;-83
2023/05/04 02:09:58;;;;;;;15.77;7.75;;;;;;;2.58;100.00;93340.50;2555838;23;20004;-85
2023/05/04 02:10:59;;;;;;;9.82;7.47;;;;;;;2.59;100.00;93335.97;2554538;23;20005;-82
2023/05/04 02:12:01;;;;;;;11.77;7.45;;;;;;;2.56;100.00;93339.34;2542930;23;20198;-82
2023/05/04 02:13:05;;;;;;;12.15;7.18;;;;;;;2.56;100.00;93332.19;2567884;23;20039;-81
2023/05/04 02:14:07;;;;;;;12.93;8.70;;;;;;;2.59;100.00;93335.97;2567377;23;20479;-82
2023/05/04 02:15:08;;;;;;;10.00;7.53;;;;;;;2.59;100.00;93339.41;2567789;23;20001;-82
2023/05/04 02:16:11;;;;;;;12.25;7.25;;;;;;;2.50;100.00;93334.41;2555091;23;20005;-83
2023/05/04 02:17:18;;;;;;;12.18;8.05;;;;;;;2.51;100.00;93329.88;2555232;23;20040;-82
2023/05/04 02:18:19;;;;;;;12.90;8.20;;;;;;;2.50;100.00;93333.63;2562758;23;20016;-82
2023/05/04 02:19:20;;;;;;;8.88;6.68;;;;;;;2.43;100.00;93339.59;2559222;23;20005;-81
2023/05/04 02:20:21;;;;;;;12.80;8.07;;;;;;;2.38;100.00;93336.50;2566968;23;20093;-82
2023/05/04 02:21:23;;;;;;;11.35;7.57;;;;;;;2.45;100.00;93341.84;2564988;23;20009;-82
2023/05/04 02:22:33;;;;;;;11.57;8.02;;;;;;;2.46;100.00;93341.50;2551990;23;20033;-82
2023/05/04 02:23:35;;;;;;;10.93;7.57;;;;;;;2.56;100.00;93326.16;2560287;23;20100;-81
2023/05/04 02:24:44;;;;;;;11.27;7.78;;;;;;;2.50;100.00;93329.13;2558899;23;20009;-82
2023/05/04 02:25:53;;;;;;;11.00;7.63;;;;;;;2.46;100.00;93333.59;2559483;23;20099;-81
2023/05/04 02:26:55;;;;;;;12.00;7.97;;;;;;;2.45;100.00;93337.34;2549316;23;20009;-83
2023/05/04 02:27:59;;;;;;;11.45;7.93;;;;;;;2.44;100.00;93335.81;2545806;23;20457;-82
2023/05/04 02:29:04;;;;;;;10.23;7.60;;;;;;;2.47;100.00;93335.13;2546963;23;20017;-82
2023/05/04 02:30:06;;;;;;;9.05;7.20;;;;;;;2.48;100.00;93328.72;2558322;23;20001;-83
2023/05/04 02:31:08;;;;;;;12.18;7.90;;;;;;;2.51;100.00;93335.16;2557157;23;20072;-81
2023/05/04 02:32:09;;;;;;;14.68;8.45;;;;;;;2.48;100.00;93334.00;2569226;23;20005;-82
2023/05/04 02:33:10;;;;;;;11.35;8.18;;;;;;;2.46;100.00;93330.97;2556457;23;20479;-82
2023/05/04 02:34:22;;;;;;;10.85;7.50;;;;;;;2.49;100.00;93332.09;2556541;23;20714;-83
2023/05/04 02:35:23;;;;;;;11.32;7.68;;;;;;;2.45;100.00;93333.94;2545957;23;20013;-82
2023/05/04 02:36:33;;;;;;;9.70;7.28;;;;;;;2.44;100.00;93335.81;2543465;23;20099;-83
2023/05/04 02:37:37;;;;;;;9.52;7.63;;;;;;;2.39;100.00;93328.22;2570455;23;20051;-81
2023/05/04 02:38:46;;;;;;;9.50;8.02;;;;;;;2.46;100.00;93330.22;2567811;23;20031;-82
2023/05/04 02:39:47;;;;;;;11.15;7.82;;;;;;;2.39;100.00;93333.50;2546344;23;20417;-82
2023/05/04 02:40:49;;;;;;;12.07;7.20;;;;;;;2.39;100.00;93335.38;2567881;23;20424;-83
2023/05/04 02:41:51;;;;;;;10.23;7.60;;;;;;;2.40;100.00;93328.97;2555176;23;20013;-83
2023/05/04 02:42:52;;;;;;;11.00;7.68;;;;;;;2.27;100.00;93337.13;2555279;23;20514;-82
2023/05/04 02:43:53;;;;;;;10.68;7.30;;;;;;;2.35;100.00;93335.34;2543134;23;20060;-82
2023/05/04 02:44:54;;;;;;;10.57;7.65;;;;;;;2.42;100.00;93340.72;2555880;23;20432;-82
2023/05/04 02:45:55;;;;;;;11.02;7.43;;;;;;;2.37;100.00;93333.13;2568126;23;20078;-83
2023/05/04 02:46:56;;;;;;;12.68;8.23;;;;;;;2.37;100.00;93337.59;2555590;23;20001;-82
2023/05/04 02:47:57;;;;;;;10.77;8.10;;;;;;;2.31;100.00;93339.03;2542756;23;20006;-82
2023/05/04 02:49:00;;;;;;;10.98;7.88;;;;;;;2.30;100.00;93346.19;2554806;23;20015;-81
2023/05/04 02:50:02;;;;;;;14.23;8.32;;;;;;;2.26;100.00;93338.22;2555683;23;20005;-82
2023/05/04 02:51:05;;;;;;;9.70;7.43;;;;;;;2.26;100.00;93338.22;2543518;23;20010;-83
2023/05/04 02:52:06;;;;;;;14.13;8.10;;;;;;;2.34;100.00;93339.09;2543023;23;20363;-83
2023/05/04 02:53:08;;;;;;;13.60;8.40;;;;;;;2.24;100.00;93337.09;2542824;23;20009;-83
2023/05/04 02:54:09;;;;;;;12.90;7.60;;;;;;;2.24;100.00;93342.38;2567402;22;20072;-84
2023/05/04 02:55:10;;;;;;;11.23;7.85;;;;;;;2.20;100.00;93341.56;2567573;23;20155;-82
2023/05/04 02:56:11;;;;;;;11.52;8.15;;;;;;;2.22;100.00;93336.66;2555464;23;20009;-82
2023/05/04 02:57:12;;;;;;;10.63;8.10;;;;;;;2.19;100.00;93338.13;2555169;23;20512;-83
2023/05/04 02:58:13;;;;;;;11.80;7.88;;;;;;;2.17;100.00;93342.25;2543429;23;20119;-83
2023/05/04 02:59:14;;;;;;;12.32;8.00;;;;;;;2.15;100.00;93340.00;2555201;23;20051;-82
2023/05/04 03:00:15;;;;;;;11.18;7.57;;;;;;;2.16;100.00;93338.09;2543563;23;20114;-83
2023/05/04 03:01:18;;;;;;;14.57;8.20;;;;;;;2.22;100.00;93337.44;2543259;23;20052;-83
2023/05/04 03:02:20;;;;;;;10.68;8.23;;;;;;;2.17;100.00;93339.63;2554994;23;20039;-82
2023/05/04 03:03:21;;;;;;;10.13;8.32;;;;;;;2.20;100.00;93336.28;2567360;23;20013;-83
2023/05/04 03:04:23;;;;;;;9.63;7.60;;;;;;;2.22;100.00;93336.66;2579895;23;20441;-83
2023/05/04 03:05:24;;;;;;;11.45;8.35;;;;;;;2.14;100.00;93330.53;2555448;23;20001;-84
2023/05/04 03:06:32;;;;;;;9.15;7.82;;;;;;;2.16;100.00;93330.94;2542958;23;20293;-81
2023/05/04 03:07:34;;;;;;;11.57;7.65;;;;;;;2.12;100.00;93340.69;2557650;23;20006;-83
2023/05/04 03:08:35;;;;;;;13.57;9.00;;;;;;;2.09;100.00;93330.09;2554764;23;20441;-82
2023/05/04 03:09:37;;;;;;;14.40;7.63;;;;;;;2.10;100.00;93334.25;2542927;23;20012;-83
2023/05/04 03:10:39;;;;;;;9.50;7.47;;;;;;;2.07;100.00;93332.34;2554919;23;20060;-83
2023/05/04 03:11:40;;;;;;;11.60;7.60;;;;;;;2.08;100.00;93333.84;2543405;23;20009;-82
2023/05/04 03:12:45;;;;;;;12.10;8.50;;;;;;;2.09;100.00;93341.41;2555344;23;20103;-82
2023/05/04 03:13:46;;;;;;;10.00;7.75;;;;;;;2.02;100.00;93333.41;2567501;23;20004;-83
2023/05/04 03:14:47;;;;;;;10.32;7.88;;;;;;;2.02;100.00;93333.41;2567358;23;20004;-82
2023/05/04 03:15:48;;;;;;;11.07;8.02;;;;;;;2.24;100.00;93329.19;2568368;23;20056;-82
2023/05/04 03:16:52;;;;;;;12.18;7.60;;;;;;;2.11;100.00;93328.63;2569417;23;20104;-81
2023/05/04 03:17:55;;;;;;;9.63;7.53;;;;;;;2.09;100.00;93325.56;2544529;23;20009;-82
2023/05/04 03:18:57;;;;;;;10.13;8.45;;;;;;;2.08;100.00;93323.31;2543950;23;20052;-82
2023/05/04 03:19:59;;;;;;;11.35;8.38;;;;;;;2.10;100.00;93327.09;2555511;23;20512;-82
2023/05/04 03:21:00;;;;;;;11.82;8.05;;;;;;;2.07;100.00;93319.91;2580270;23;20148;-83
2023/05/04 03:22:09;;;;;;;14.93;8.20;;;;;;;2.10;100.00;93329.72;2568146;23;20481;-83
2023/05/04 03:23:19;;;;;;;11.65;8.13;;;;;;;2.09;100.00;93320.31;2571025;22;20000;-82
2023/05/04 03:24:24;;;;;;;11.60;7.95;;;;;;;2.08;100.00;93316.16;2567506;23;20008;-83
2023/05/04 03:25:25;;;;;;;10.52;8.00;;;;;;;2.06;100.00;93320.25;2544545;23;20001;-82
2023/05/04 03:26:29;;;;;;;11.77;8.40;;;;;;;2.08;100.00;93318.03;2543847;23;20009;-83
2023/05/04 03:27:33;;;;;;;11.93;8.38;;;;;;;2.02;100.00;93320.22;2558159;23;20025;-82
2023/05/04 03:28:34;;;;;;;10.82;8.00;;;;;;;2.07;100.00;93319.91;2567884;23;20370;-82
2023/05/04 03:29:35;;;;;;;13.98;8.75;;;;;;;2.02;100.00;93317.59;2568012;23;20008;-81
2023/05/04 03:30:36;;;;;;;11.23;7.90;;;;;;;2.07;100.00;93321.78;2568284;23;20428;-81
2023/05/04 03:31:39;;;;;;;12.90;8.50;;;;;;;2.01;100.00;93319.44;2581344;23;20038;-82
2023/05/04 03:32:44;;;;;;;10.48;9.00;;;;;;;2.01;100.00;93319.44;2568109;23;20012;-83
2023/05/04 03:33:45;;;;;;;11.35;8.63;;;;;;;2.09;100.00;93316.91;2569336;23;20374;-83
2023/05/04 03:34:47;;;;;;;12.38;8.43;;;;;;;2.04;100.00;93322.50;2567722;23;20012;-82
2023/05/04 03:35:53;;;;;;;16.25;9.18;;;;;;;1.92;100.00;93318.94;2544064;23;20008;-83
2023/05/04 03:36:54;;;;;;;17.88;9.55;;;;;;;1.88;100.00;93317.38;2545979;23;20109;-82
2023/05/04 03:37:55;;;;;;;12.25;8.65;;;;;;;1.88;100.00;93312.09;2555533;23;20005;-82
2023/05/04 03:39:02;;;;;;;13.07;9.07;;;;;;;1.87;100.00;93318.50;2568035;23;20071;-83
2023/05/04 03:40:04;;;;;;;13.98;9.35;;;;;;;1.84;100.00;93317.31;2556950;23;20005;-83
2023/05/04 03:41:05;;;;;;;11.40;9.65;;;;;;;1.85;100.00;93315.47;2556931;23;20005;-83
2023/05/04 03:42:06;;;;;;;11.80;9.38;;;;;;;1.90;100.00;93313.28;2556357;23;20005;-82
2023/05/04 03:43:07;;;;;;;11.10;8.80;;;;;;;1.88;100.00;93312.84;2555810;23;20005;-82
2023/05/04 03:44:08;;;;;;;16.52;10.05;;;;;;;1.91;100.00;93311.41;2555941;23;20005;-82
2023/05/04 03:45:12;;;;;;;13.80;8.88;;;;;;;1.95;100.00;93312.97;2557687;23;20336;-83
2023/05/04 03:46:13;;;;;;;12.70;9.07;;;;;;;1.94;100.00;93308.81;2568021;23;20004;-83
2023/05/04 03:47:14;;;;;;;16.55;9.60;;;;;;;1.88;100.00;93310.22;2579976;23;20397;-83
2023/05/04 03:48:23;;;;;;;12.00;9.23;;;;;;;1.81;100.00;93307.50;2568709;23;20423;-83
2023/05/04 03:49:25;;;;;;;11.23;8.90;;;;;;;1.81;100.00;93304.13;2557976;23;20335;-83
2023/05/04 03:50:26;;;;;;;14.35;9.20;;;;;;;1.79;100.00;93303.69;2556320;23;20078;-84
2023/05/04 03:51:32;;;;;;;12.90;9.30;;;;;;;1.74;100.00;93305.50;2543441;23;20033;-83
2023/05/04 03:52:33;;;;;;;17.73;8.85;;;;;;;1.74;100.00;93305.50;2556894;23;20428;-84
2023/05/04 03:53:34;;;;;;;11.60;9.05;;;;;;;1.76;100.00;93305.19;2555569;23;20001;-83
2023/05/04 03:54:35;;;;;;;11.60;9.00;;;;;;;1.83;100.00;93307.13;2567965;23;20035;-84
2023/05/04 03:55:36;;;;;;;10.38;9.07;;;;;;;1.82;100.00;93303.00;2555674;23;20012;-83
2023/05/04 03:56:40;;;;;;;12.52;8.82;;;;;;;1.81;100.00;93304.88;2556000;23;20009;-84
2023/05/04 03:57:42;;;;;;;11.98;9.50;;;;;;;1.93;100.00;93303.88;2556995;23;20013;-83
2023/05/04 03:58:43;;;;;;;13.05;9.75;;;;;;;1.88;100.00;93309.47;2556194;23;20499;-84
2023/05/04 03:59:45;;;;;;;12.10;9.18;;;;;;;1.87;100.00;93298.16;2555963;23;20092;-83
2023/05/04 04:00:49;;;;;;;11.35;9.45;;;;;;;1.75;100.00;93296.47;2543553;23;20044;-83
2023/05/04 04:01:53;;;;;;;13.48;9.90;;;;;;;1.74;100.00;93299.47;2557570;23;20399;-83
2023/05/04 04:02:54;;;;;;;12.43;9.43;;;;;;;1.91;100.00;93304.25;2556749;23;20407;-84
2023/05/04 04:03:57;;;;;;;12.13;9.68;;;;;;;1.80;100.00;93300.72;2555403;23;20005;-82
2023/05/04 04:04:58;;;;;;;15.60;9.60;;;;;;;1.83;100.00;93307.13;2555797;23;20009;-82
2023/05/04 04:06:07;;;;;;;12.35;9.85;;;;;;;1.75;100.00;93301.75;2551531;23;20005;-84
2023/05/04 04:07:16;;;;;;;13.45;9.32;;;;;;;1.73;100.00;93304.00;2569787;23;20351;-83
2023/05/04 04:08:25;;;;;;;13.15;9.05;;;;;;;1.82;100.00;93301.09;2557812;23;20367;-84
2023/05/04 04:09:27;;;;;;;12.75;9.15;;;;;;;1.82;100.00;93300.34;2570160;23;20005;-83
2023/05/04 04:10:36;;;;;;;;;;;;;;;1.84;100.00;93295.47;2568916;23;20415;-83
2023/05/04 04:11:43;;;;;;;10.27;8.80;;;;;;;1.84;100.00;93298.88;2560492;23;19983;-84
2023/05/04 04:12:47;;;;;;;12.43;9.20;;;;;;;1.83;100.00;93300.00;2568567;23;20055;-83
2023/05/04 04:13:51;;;;;;;12.60;10.35;;;;;;;1.84;100.00;93298.09;2568151;23;20008;-83
2023/05/04 04:14:54;;;;;;;13.50;9.30;;;;;;;1.83;100.00;93297.34;2546096;23;20016;-83
2023/05/04 04:16:06;;;;;;;13.82;10.35;;;;;;;1.84;100.00;93298.88;2560223;23;20009;-84
2023/05/04 04:17:10;;;;;;;13.63;10.13;;;;;;;1.80;100.00;93306.00;2568834;23;20083;-83
2023/05/04 04:18:12;;;;;;;13.73;10.02;;;;;;;1.80;100.00;93299.94;2556394;23;20493;-84
2023/05/04 04:19:13;;;;;;;14.35;10.45;;;;;;;1.81;100.00;93304.13;2543836;23;20507;-84
2023/05/04 04:20:15;;;;;;;14.23;11.00;;;;;;;1.77;100.00;93302.19;2544494;23;20005;-84
2023/05/04 04:21:16;;;;;;;16.98;10.93;;;;;;;1.78;100.00;93297.66;2543763;23;20005;-83
2023/05/04 04:22:17;;;;;;;13.00;10.18;;;;;;;1.84;100.00;93304.13;2542960;23;20005;-83
2023/05/04 04:23:18;;;;;;;16.35;10.73;;;;;;;1.88;100.00;93306.81;2555834;23;20507;-85
2023/05/04 04:24:19;;;;;;;14.77;10.98;;;;;;;1.90;100.00;93300.09;2555646;23;20001;-85
2023/05/04 04:25:20;;;;;;;13.93;10.68;;;;;;;1.91;100.00;93298.22;2556262;23;20091;-84
2023/05/04 04:26:21;;;;;;;15.80;10.95;;;;;;;1.91;100.00;93304.25;2568367;23;20008;-84
2023/05/04 04:27:25;;;;;;;17.08;10.80;;;;;;;1.92;100.00;93300.50;2552911;23;20004;-84
2023/05/04 04:28:26;;;;;;;15.00;9.95;;;;;;;1.90;100.00;93300.09;2569352;23;20028;-82
2023/05/04 04:29:27;;;;;;;15.90;11.00;;;;;;;1.92;100.00;93305.00;2555311;23;20009;-84
2023/05/04 04:30:28;;;;;;;14.13;10.63;;;;;;;2.00;100.00;93307.38;2555367;23;20036;-83
2023/05/04 04:31:29;;;;;;;14.63;11.30;;;;;;;1.99;100.00;93299.84;2568451;23;20075;-84
2023/05/04 04:32:30;;;;;;;14.43;11.07;;;;;;;1.95;100.00;93297.16;2563712;23;20131;-84
2023/05/04 04:33:33;;;;;;;15.23;10.52;;;;;;;1.92;100.00;93300.50;2538642;23;20364;-83
2023/05/04 04:34:34;;;;;;;15.50;11.25;;;;;;;2.00;100.00;93301.34;2550929;23;20005;-83
2023/05/04 04:35:37;;;;;;;13.38;10.70;;;;;;;1.99;100.00;93302.47;2564520;23;20004;-84
2023/05/04 04:36:39;;;;;;;17.45;11.30;;;;;;;2.00;100.00;93304.00;2553406;23;20013;-82
2023/05/04 04:37:40;;;;;;;14.50;10.93;;;;;;;1.93;100.00;93301.25;2562428;23;20373;-84
2023/05/04 04:38:42;;;;;;;12.45;10.23;;;;;;;2.03;100.00;93305.91;2564148;23;20012;-84
2023/05/04 04:39:43;;;;;;;14.68;10.18;;;;;;;2.05;100.00;93314.22;2565360;23;20019;-83
2023/05/04 04:40:44;;;;;;;14.38;10.45;;;;;;;2.02;100.00;93309.69;2541415;23;20009;-84
2023/05/04 04:41:54;;;;;;;11.40;9.80;;;;;;;2.08;100.00;93305.59;2541880;23;20005;-84
2023/05/04 04:42:55;;;;;;;12.90;10.15;;;;;;;2.15;100.00;93307.56;2542981;23;20364;-85
2023/05/04 04:44:00;;;;;;;12.77;10.95;;;;;;;2.09;100.00;93309.75;2540455;23;20021;-83
2023/05/04 04:45:04;;;;;;;19.23;11.10;;;;;;;2.08;100.00;93302.97;2565646;23;20414;-84
2023/05/04 04:46:06;;;;;;;13.32;10.05;;;;;;;2.07;100.00;93303.34;2553370;23;20009;-83
2023/05/04 04:47:07;;;;;;;17.35;10.98;;;;;;;2.13;100.00;93307.16;2541059;23;20204;-84
2023/05/04 04:48:08;;;;;;;13.23;11.25;;;;;;;2.15;100.00;93302.28;2552546;23;20012;-85
2023/05/04 04:49:11;;;;;;;17.48;11.60;;;;;;;2.15;100.00;93303.06;2553427;23;20009;-84
2023/05/04 04:50:12;;;;;;;15.60;11.60;;;;;;;2.21;100.00;93295.59;2554488;23;20225;-84
2023/05/04 04:51:13;;;;;;;16.58;11.07;;;;;;;2.22;100.00;93297.88;2566788;23;20290;-84
2023/05/04 04:52:16;;;;;;;15.85;10.70;;;;;;;2.23;100.00;93301.25;2554008;23;20100;-84
2023/05/04 04:53:18;;;;;;;19.50;12.85;;;;;;;2.24;100.00;93298.28;2554670;23;20099;-84
2023/05/04 04:54:23;;;;;;;20.05;12.57;;;;;;;2.32;100.00;93295.72;2542360;23;20006;-84
2023/05/04 04:55:27;;;;;;;21.02;12.88;;;;;;;2.29;100.00;93305.13;2543536;23;20487;-85